createdAt,value
2023-03-05T00:00:46.815Z,102389.41
2023-03-05T00:02:49.271Z,102387.72
2023-03-05T00:04:51.788Z,102390.19
2023-03-05T00:06:55.886Z,102382.22
2023-03-05T00:08:58.748Z,102380.53
2023-03-05T00:11:04.301Z,102374.53
2023-03-05T00:13:06.642Z,102375.44
2023-03-05T00:15:09.916Z,102378.44
2023-03-05T00:17:12.164Z,102368.00
2023-03-05T00:19:14.600Z,102372.53
2023-03-05T00:21:22.392Z,102364.63
2023-03-05T00:23:24.639Z,102371.34
2023-03-05T00:25:27.193Z,102371.44
2023-03-05T00:27:29.468Z,102366.22
2023-03-05T00:29:31.905Z,102368.44
2023-03-05T00:31:35.949Z,102363.59
2023-03-05T00:33:38.263Z,102370.38
2023-03-05T00:35:42.437Z,102360.06
2023-03-05T00:37:44.799Z,102355.53
2023-03-05T00:39:47.198Z,102353.06
2023-03-05T00:41:50.087Z,102355.09
2023-03-05T00:43:52.491Z,102355.81
2023-03-05T00:45:54.931Z,102359.16
2023-03-05T00:47:57.279Z,102355.00
2023-03-05T00:50:00.233Z,102352.38
2023-03-05T00:52:02.427Z,102346.94
2023-03-05T00:54:06.093Z,102349.97
2023-03-05T00:56:08.476Z,102346.38
2023-03-05T00:58:12.192Z,102348.13
2023-03-05T01:00:17.299Z,102343.78
2023-03-05T01:02:19.722Z,102335.22
2023-03-05T01:04:22.085Z,102340.28
2023-03-05T01:06:24.432Z,102334.84
2023-03-05T01:08:27.211Z,102331.69
2023-03-05T01:10:30.578Z,102327.97
2023-03-05T01:12:32.868Z,102324.63
2023-03-05T01:14:36.157Z,102322.47
2023-03-05T01:16:38.469Z,102325.56
2023-03-05T01:18:41.427Z,102326.63
2023-03-05T01:20:43.836Z,102320.53
2023-03-05T01:22:46.107Z,102314.28
2023-03-05T01:24:48.384Z,102316.47
2023-03-05T01:26:51.109Z,102310.03
2023-03-05T01:28:53.461Z,102311.88
2023-03-05T01:30:55.859Z,102315.41
2023-03-05T01:32:58.148Z,102307.66
2023-03-05T01:35:02.453Z,102304.47
2023-03-05T01:37:05.001Z,102299.34
2023-03-05T01:39:07.244Z,102296.69
2023-03-05T01:41:10.549Z,102287.31
2023-03-05T01:43:13.742Z,102291.22
2023-03-05T01:45:18.748Z,102289.72
2023-03-05T01:47:21.092Z,102281.06
2023-03-05T01:49:29.750Z,102279.91
2023-03-05T01:51:37.091Z,102270.13
2023-03-05T01:53:40.363Z,102268.59
2023-03-05T01:55:42.624Z,102264.28
2023-03-05T01:57:49.934Z,102265.06
2023-03-05T01:59:58.437Z,102261.53
2023-03-05T02:02:01.189Z,102261.53
2023-03-05T02:04:04.041Z,102262.34
2023-03-05T02:06:06.535Z,102264.91
2023-03-05T02:08:11.708Z,102257.94
2023-03-05T02:10:20.835Z,102259.63
2023-03-05T02:12:23.608Z,102257.75
2023-03-05T02:14:27.393Z,102250.25
2023-03-05T02:16:37.237Z,102248.13
2023-03-05T02:18:39.532Z,102242.91
2023-03-05T02:20:45.249Z,102237.78
2023-03-05T02:22:47.794Z,102239.47
2023-03-05T02:24:50.638Z,102237.44
2023-03-05T02:26:52.997Z,102232.22
2023-03-05T02:29:01.481Z,102235.16
2023-03-05T02:31:10.289Z,102235.41
2023-03-05T02:33:15.407Z,102228.88
2023-03-05T02:35:17.915Z,102225.16
2023-03-05T02:37:20.348Z,102228.88
2023-03-05T02:39:22.595Z,102231.50
2023-03-05T02:41:25.341Z,102217.91
2023-03-05T02:43:27.849Z,102219.66
2023-03-05T02:45:30.424Z,102218.09
2023-03-05T02:47:33.418Z,102212.00
2023-03-05T02:49:35.865Z,102214.28
2023-03-05T02:51:38.131Z,102209.09
2023-03-05T02:53:40.456Z,102208.22
2023-03-05T02:55:42.874Z,102209.25
2023-03-05T02:57:45.432Z,102204.78
2023-03-05T02:59:47.850Z,102198.50
2023-03-05T03:01:50.152Z,102197.09
2023-03-05T03:03:52.311Z,102188.88
2023-03-05T03:05:54.644Z,102184.56
2023-03-05T03:07:56.864Z,102191.59
2023-03-05T03:09:59.094Z,102181.69
2023-03-05T03:12:01.374Z,102183.09
2023-03-05T03:14:03.833Z,102181.69
2023-03-05T03:16:09.917Z,102175.34
2023-03-05T03:18:12.190Z,102172.88
2023-03-05T03:20:16.918Z,102171.81
2023-03-05T03:22:19.071Z,102165.66
2023-03-05T03:24:22.115Z,102165.44
2023-03-05T03:26:25.077Z,102161.91
2023-03-05T03:28:27.409Z,102155.53
2023-03-05T03:30:29.906Z,102152.38
2023-03-05T03:32:33.301Z,102146.47
2023-03-05T03:34:35.625Z,102149.91
2023-03-05T03:36:38.086Z,102146.47
2023-03-05T03:38:40.496Z,102135.13
2023-03-05T03:40:42.860Z,102141.72
2023-03-05T03:42:45.297Z,102141.84
2023-03-05T03:44:48.703Z,102137.69
2023-03-05T03:46:51.887Z,102132.81
2023-03-05T03:48:54.387Z,102138.47
2023-03-05T03:50:56.594Z,102133.50
2023-03-05T03:52:59.188Z,102134.72
2023-03-05T03:55:02.404Z,102134.31
2023-03-05T03:57:04.944Z,102124.25
2023-03-05T03:59:07.656Z,102123.13
2023-03-05T04:01:10.219Z,102122.56
2023-03-05T04:03:12.632Z,102120.66
2023-03-05T04:05:15.053Z,102124.09
2023-03-05T04:07:17.591Z,102119.94
2023-03-05T04:09:19.832Z,102117.44
2023-03-05T04:11:22.707Z,102125.28
2023-03-05T04:13:24.820Z,102114.06
2023-03-05T04:15:27.105Z,102123.06
2023-03-05T04:17:29.218Z,102109.31
2023-03-05T04:19:31.381Z,102111.72
2023-03-05T04:21:33.460Z,102102.34
2023-03-05T04:23:35.792Z,102106.66
2023-03-05T04:25:37.967Z,102094.50
2023-03-05T04:27:41.411Z,102102.06
2023-03-05T04:29:43.457Z,102107.47
2023-03-05T04:31:45.505Z,102091.16
2023-03-05T04:33:47.593Z,102093.72
2023-03-05T04:35:51.200Z,102088.50
2023-03-05T04:37:53.460Z,102100.84
2023-03-05T04:39:55.760Z,102095.81
2023-03-05T04:41:57.770Z,102089.91
2023-03-05T04:43:59.804Z,102096.44
2023-03-05T04:46:02.009Z,102088.84
2023-03-05T04:48:04.541Z,102093.97
2023-03-05T04:50:07.622Z,102087.16
2023-03-05T04:52:12.436Z,102089.56
2023-03-05T04:54:14.485Z,102088.13
2023-03-05T04:56:16.855Z,102079.84
2023-03-05T04:58:20.833Z,102080.56
2023-03-05T05:00:23.282Z,102075.69
2023-03-05T05:02:25.642Z,102074.66
2023-03-05T05:04:27.821Z,102061.66
2023-03-05T05:06:29.913Z,102065.72
2023-03-05T05:08:32.136Z,102070.84
2023-03-05T05:10:34.449Z,102064.13
2023-03-05T05:12:36.986Z,102056.81
2023-03-05T05:14:39.225Z,102057.59
2023-03-05T05:16:41.405Z,102056.81
2023-03-05T05:18:43.668Z,102049.06
2023-03-05T05:20:45.698Z,102044.91
2023-03-05T05:22:47.742Z,102044.09
2023-03-05T05:24:49.905Z,102040.56
2023-03-05T05:26:54.416Z,102040.38
2023-03-05T05:28:56.455Z,102040.94
2023-03-05T05:30:58.735Z,102038.72
2023-03-05T05:33:00.907Z,102035.28
2023-03-05T05:35:04.064Z,102034.84
2023-03-05T05:37:06.072Z,102035.91
2023-03-05T05:39:08.265Z,102035.81
2023-03-05T05:41:13.855Z,102036.84
2023-03-05T05:43:15.927Z,102033.41
2023-03-05T05:45:18.173Z,102031.81
2023-03-05T05:47:20.394Z,102033.25
2023-03-05T05:49:22.476Z,102029.75
2023-03-05T05:51:25.037Z,102019.44
2023-03-05T05:53:27.205Z,102020.66
2023-03-05T05:55:29.235Z,102015.63
2023-03-05T05:57:31.802Z,102013.94
2023-03-05T05:59:34.052Z,102014.91
2023-03-05T06:01:36.153Z,102008.66
2023-03-05T06:03:38.232Z,102012.09
2023-03-05T06:05:43.348Z,102012.09
2023-03-05T06:07:45.545Z,102008.75
2023-03-05T06:09:47.628Z,102018.09
2023-03-05T06:11:50.603Z,102016.59
2023-03-05T06:13:52.857Z,102017.22
2023-03-05T06:15:58.839Z,102011.63
2023-03-05T06:18:01.319Z,102014.38
2023-03-05T06:20:04.587Z,102015.63
2023-03-05T06:22:06.616Z,102021.53
2023-03-05T06:24:08.821Z,102017.22
2023-03-05T06:26:14.070Z,102018.44
2023-03-05T06:28:18.434Z,102011.75
2023-03-05T06:30:20.612Z,102004.94
2023-03-05T06:32:23.447Z,102004.94
2023-03-05T06:34:25.618Z,101999.47
2023-03-05T06:36:28.630Z,102003.28
2023-03-05T06:38:30.939Z,102002.66
2023-03-05T06:40:33.074Z,102000.91
2023-03-05T06:42:35.490Z,102000.13
2023-03-05T06:44:40.585Z,102002.66
2023-03-05T06:46:42.701Z,101998.50
2023-03-05T06:48:45.366Z,101996.56
2023-03-05T06:50:47.523Z,101996.41
2023-03-05T06:52:50.822Z,102002.59
2023-03-05T06:54:55.905Z,101994.63
2023-03-05T06:56:58.304Z,102000.03
2023-03-05T06:59:00.375Z,101999.75
2023-03-05T07:01:05.573Z,101991.13
2023-03-05T07:03:07.874Z,102000.31
2023-03-05T07:05:10.470Z,102002.94
2023-03-05T07:07:12.689Z,102005.03
2023-03-05T07:09:16.002Z,102006.97
2023-03-05T07:11:20.158Z,102002.16
2023-03-05T07:13:22.281Z,101994.72
2023-03-05T07:15:24.531Z,101998.34
2023-03-05T07:17:26.627Z,101997.38
2023-03-05T07:19:28.599Z,101997.91
2023-03-05T07:21:33.558Z,101993.75
2023-03-05T07:23:36.814Z,101993.59
2023-03-05T07:25:39.902Z,101991.72
2023-03-05T07:27:41.970Z,101988.84
2023-03-05T07:29:44.006Z,101985.03
2023-03-05T07:31:46.265Z,101983.38
2023-03-05T07:33:51.283Z,101988.41
2023-03-05T07:35:53.550Z,101982.75
2023-03-05T07:37:56.066Z,101976.13
2023-03-05T07:39:58.549Z,101977.00
2023-03-05T07:42:00.662Z,101977.09
2023-03-05T07:44:03.433Z,101977.97
2023-03-05T07:46:07.889Z,101980.59
2023-03-05T07:48:16.612Z,101980.97
2023-03-05T07:50:18.891Z,101982.41
2023-03-05T07:52:20.976Z,101992.34
2023-03-05T07:54:23.098Z,101982.81
2023-03-05T07:56:32.116Z,101979.13
2023-03-05T07:58:34.259Z,101985.84
2023-03-05T08:00:36.478Z,101978.84
2023-03-05T08:02:38.542Z,101984.84
2023-03-05T08:04:42.339Z,101978.41
2023-03-05T08:06:44.295Z,101982.00
2023-03-05T08:08:46.409Z,101966.28
2023-03-05T08:10:48.338Z,101978.22
2023-03-05T08:12:50.328Z,101973.38
2023-03-05T08:14:52.322Z,101969.41
2023-03-05T08:16:54.250Z,101971.88
2023-03-05T08:18:57.589Z,101972.50
2023-03-05T08:20:59.760Z,101969.00
2023-03-05T08:23:03.409Z,101968.69
2023-03-05T08:25:07.197Z,101970.66
2023-03-05T08:27:09.837Z,101969.94
2023-03-05T08:29:11.873Z,101970.72
2023-03-05T08:31:16.239Z,101972.41
2023-03-05T08:33:18.380Z,101969.84
2023-03-05T08:35:21.002Z,101962.34
2023-03-05T08:37:22.857Z,101953.88
2023-03-05T08:39:24.847Z,101962.91
2023-03-05T08:41:26.732Z,101961.03
2023-03-05T08:43:28.713Z,101959.88
2023-03-05T08:45:30.597Z,101957.59
2023-03-05T08:47:32.436Z,101949.09
2023-03-05T08:49:34.353Z,101958.47
2023-03-05T08:51:36.566Z,101947.00
2023-03-05T08:53:39.310Z,101948.31
2023-03-05T08:55:43.828Z,101938.94
2023-03-05T08:57:45.992Z,101951.91
2023-03-05T08:59:50.325Z,101942.38
2023-03-05T09:01:52.293Z,101939.22
2023-03-05T09:03:54.722Z,101936.03
2023-03-05T09:06:01.110Z,101933.13
2023-03-05T09:08:04.971Z,101934.09
2023-03-05T09:10:10.094Z,101936.75
2023-03-05T09:12:13.468Z,101931.13
2023-03-05T09:14:15.355Z,101924.53
2023-03-05T09:16:18.764Z,101923.56
2023-03-05T09:18:22.839Z,101916.84
2023-03-05T09:20:24.749Z,101918.75
2023-03-05T09:22:26.698Z,101919.56
2023-03-05T09:24:28.624Z,101913.56
2023-03-05T09:26:31.767Z,101911.34
2023-03-05T09:28:33.611Z,101910.84
2023-03-05T09:30:36.084Z,101910.28
2023-03-05T09:32:38.026Z,101910.66
2023-03-05T09:34:39.908Z,101911.47
2023-03-05T09:36:41.732Z,101903.06
2023-03-05T09:38:43.557Z,101898.28
2023-03-05T09:40:48.861Z,101891.63
2023-03-05T09:42:51.466Z,101893.38
2023-03-05T09:44:56.948Z,101893.47
2023-03-05T09:47:05.255Z,101896.75
2023-03-05T09:49:11.577Z,101891.13
2023-03-05T09:51:21.108Z,101887.38
2023-03-05T09:53:34.013Z,101893.38
2023-03-05T09:55:41.100Z,101885.63
2023-03-05T09:57:48.792Z,101890.75
2023-03-05T09:59:58.131Z,101890.41
2023-03-05T10:02:05.468Z,101885.66
2023-03-05T10:04:12.751Z,101884.19
2023-03-05T10:06:20.868Z,101890.47
2023-03-05T10:08:31.426Z,101871.09
2023-03-05T10:10:40.822Z,101875.72
2023-03-05T10:12:46.103Z,101878.38
2023-03-05T10:14:49.270Z,101870.13
2023-03-05T10:16:54.706Z,101864.28
2023-03-05T10:19:00.988Z,101862.31
2023-03-05T10:21:06.358Z,101851.72
2023-03-05T10:23:09.336Z,101857.72
2023-03-05T10:25:15.828Z,101859.53
2023-03-05T10:27:27.274Z,101850.09
2023-03-05T10:29:33.593Z,101841.63
2023-03-05T10:31:38.967Z,101839.88
2023-03-05T10:33:45.538Z,101841.84
2023-03-05T10:35:50.945Z,101837.53
2023-03-05T10:37:59.054Z,101835.63
2023-03-05T10:40:12.135Z,101830.91
2023-03-05T10:42:17.714Z,101830.91
2023-03-05T10:44:29.591Z,101826.81
2023-03-05T10:46:35.512Z,101831.28
2023-03-05T10:48:43.462Z,101826.97
2023-03-05T10:50:50.144Z,101822.03
2023-03-05T10:53:06.653Z,101816.59
2023-03-05T10:55:13.909Z,101812.41
2023-03-05T10:57:21.305Z,101804.44
2023-03-05T10:59:23.211Z,101802.34
2023-03-05T11:01:28.476Z,101805.25
2023-03-05T11:03:36.713Z,101806.88
2023-03-05T11:05:39.319Z,101807.75
2023-03-05T11:07:41.331Z,101814.72
2023-03-05T11:09:53.269Z,101808.09
2023-03-05T11:12:01.314Z,101802.81
2023-03-05T11:14:04.836Z,101789.69
2023-03-05T11:16:15.999Z,101796.56
2023-03-05T11:18:24.372Z,101793.47
2023-03-05T11:20:28.084Z,101788.81
2023-03-05T11:22:37.844Z,101776.00
2023-03-05T11:24:41.464Z,101774.41
2023-03-05T11:26:48.678Z,101775.59
2023-03-05T11:28:54.022Z,101778.50
2023-03-05T11:31:00.509Z,101771.22
2023-03-05T11:33:10.285Z,101770.91
2023-03-05T11:35:31.574Z,101764.50
2023-03-05T11:37:33.555Z,101761.69
2023-03-05T11:39:38.463Z,101759.63
2023-03-05T11:41:47.068Z,101755.28
2023-03-05T11:43:51.144Z,101751.72
2023-03-05T11:46:01.701Z,101751.88
2023-03-05T11:48:13.913Z,101751.94
2023-03-05T11:50:21.226Z,101755.75
2023-03-05T11:52:31.119Z,101752.16
2023-03-05T11:54:42.908Z,101748.09
2023-03-05T11:56:47.471Z,101748.44
2023-03-05T11:58:53.354Z,101745.38
2023-03-05T12:00:57.987Z,101733.25
2023-03-05T12:03:04.532Z,101727.47
2023-03-05T12:05:07.995Z,101737.47
2023-03-05T12:07:14.219Z,101736.56
2023-03-05T12:09:22.445Z,101730.19
2023-03-05T12:11:30.665Z,101718.97
2023-03-05T12:13:43.045Z,101720.84
2023-03-05T12:15:56.589Z,101720.81
2023-03-05T12:18:08.673Z,101711.06
2023-03-05T12:20:21.131Z,101700.78
2023-03-05T12:22:26.123Z,101704.63
2023-03-05T12:24:31.202Z,101697.75
2023-03-05T12:26:39.489Z,101693.69
2023-03-05T12:28:53.338Z,101678.34
2023-03-05T12:31:01.411Z,101673.88
2023-03-05T12:33:06.049Z,101661.41
2023-03-05T12:35:14.216Z,101662.13
2023-03-05T12:37:22.272Z,101660.19
2023-03-05T12:39:42.582Z,101657.00
2023-03-05T12:41:44.646Z,101643.41
2023-03-05T12:43:46.598Z,101633.94
2023-03-05T12:45:48.523Z,101643.41
2023-03-05T12:47:56.717Z,101640.59
2023-03-05T12:50:02.026Z,101637.16
2023-03-05T12:52:05.567Z,101625.50
2023-03-05T12:54:14.103Z,101626.81
2023-03-05T12:56:20.834Z,101619.13
2023-03-05T12:58:32.559Z,101616.25
2023-03-05T13:00:43.338Z,101605.25
2023-03-05T13:02:46.556Z,101598.72
2023-03-05T13:04:53.652Z,101589.66
2023-03-05T13:07:00.483Z,101584.81
2023-03-05T13:09:07.563Z,101583.53
2023-03-05T13:11:19.392Z,101580.63
2023-03-05T13:13:22.419Z,101579.19
2023-03-05T13:15:26.434Z,101575.34
2023-03-05T13:17:31.874Z,101566.94
2023-03-05T13:19:36.179Z,101561.94
2023-03-05T13:21:38.529Z,101563.16
2023-03-05T13:23:49.130Z,101561.06
2023-03-05T13:25:57.338Z,101557.63
2023-03-05T13:28:05.789Z,101547.06
2023-03-05T13:30:22.326Z,101541.94
2023-03-05T13:32:29.152Z,101540.34
2023-03-05T13:34:46.557Z,101538.59
2023-03-05T13:36:55.461Z,101526.16
2023-03-05T13:38:57.835Z,101516.94
2023-03-05T13:41:05.513Z,101509.78
2023-03-05T13:43:12.538Z,101511.63
2023-03-05T13:45:20.689Z,101518.69
2023-03-05T13:47:25.290Z,101508.16
2023-03-05T13:49:28.970Z,101510.31
2023-03-05T13:51:42.640Z,101497.50
2023-03-05T13:53:45.352Z,101494.59
2023-03-05T13:55:53.835Z,101497.94
2023-03-05T13:57:55.923Z,101491.63
2023-03-05T13:59:58.072Z,101486.53
2023-03-05T14:02:06.063Z,101483.09
2023-03-05T14:04:20.744Z,101489.19
2023-03-05T14:06:25.269Z,101480.03
2023-03-05T14:08:30.349Z,101473.63
2023-03-05T14:10:36.690Z,101471.56
2023-03-05T14:12:42.785Z,101470.13
2023-03-05T14:14:45.313Z,101474.22
2023-03-05T14:16:47.490Z,101464.31
2023-03-05T14:18:55.206Z,101470.53
2023-03-05T14:21:02.277Z,101463.03
2023-03-05T14:23:27.345Z,101453.22
2023-03-05T14:25:36.601Z,101451.34
2023-03-05T14:27:39.407Z,101439.78
2023-03-05T14:29:45.943Z,101440.13
2023-03-05T14:31:52.344Z,101434.53
2023-03-05T14:33:59.613Z,101433.22
2023-03-05T14:36:04.997Z,101432.59
2023-03-05T14:38:09.034Z,101431.44
2023-03-05T14:40:12.770Z,101427.22
2023-03-05T14:42:28.123Z,101414.63
2023-03-05T14:44:30.012Z,101407.66
2023-03-05T14:46:32.215Z,101411.00
2023-03-05T14:48:34.770Z,101394.88
2023-03-05T14:50:44.891Z,101401.38
2023-03-05T14:52:49.445Z,101392.81
2023-03-05T14:54:53.762Z,101388.84
2023-03-05T14:56:56.677Z,101383.09
2023-03-05T14:58:59.299Z,101381.34
2023-03-05T15:01:02.478Z,101382.63
2023-03-05T15:03:07.035Z,101379.41
2023-03-05T15:05:10.834Z,101367.56
2023-03-05T15:07:19.220Z,101370.44
2023-03-05T15:09:21.797Z,101376.59
2023-03-05T15:11:24.316Z,101363.94
2023-03-05T15:13:27.012Z,101365.97
2023-03-05T15:15:29.589Z,101362.56
2023-03-05T15:17:33.516Z,101362.00
2023-03-05T15:19:35.493Z,101361.88
2023-03-05T15:21:37.527Z,101356.69
2023-03-05T15:23:41.627Z,101355.97
2023-03-05T15:25:44.376Z,101355.25
2023-03-05T15:27:50.957Z,101350.13
2023-03-05T15:29:53.357Z,101346.91
2023-03-05T15:31:55.541Z,101352.94
2023-03-05T15:33:57.514Z,101345.97
2023-03-05T15:36:00.160Z,101344.63
2023-03-05T15:38:02.390Z,101343.19
2023-03-05T15:40:05.168Z,101329.72
2023-03-05T15:42:07.547Z,101322.84
2023-03-05T15:44:09.632Z,101323.66
2023-03-05T15:46:11.989Z,101323.84
2023-03-05T15:48:14.350Z,101313.44
2023-03-05T15:50:19.870Z,101317.91
2023-03-05T15:52:22.091Z,101320.53
2023-03-05T15:54:24.363Z,101314.38
2023-03-05T15:56:26.467Z,101309.59
2023-03-05T15:58:33.406Z,101315.47
2023-03-05T16:00:38.272Z,101308.56
2023-03-05T16:02:40.481Z,101305.25
2023-03-05T16:04:43.510Z,101300.94
2023-03-05T16:06:49.641Z,101293.41
2023-03-05T16:08:55.346Z,101286.66
2023-03-05T16:10:58.361Z,101293.25
2023-03-05T16:13:07.069Z,101294.88
2023-03-05T16:15:12.378Z,101287.06
2023-03-05T16:17:16.251Z,101291.25
2023-03-05T16:19:20.001Z,101281.63
2023-03-05T16:21:22.399Z,101277.66
2023-03-05T16:23:25.286Z,101276.84
2023-03-05T16:25:27.448Z,101269.34
2023-03-05T16:27:30.349Z,101270.41
2023-03-05T16:29:35.624Z,101273.03
2023-03-05T16:31:40.806Z,101264.66
2023-03-05T16:33:42.954Z,101268.97
2023-03-05T16:35:45.181Z,101265.41
2023-03-05T16:37:47.771Z,101262.53
2023-03-05T16:39:50.491Z,101263.56
2023-03-05T16:41:55.434Z,101261.88
2023-03-05T16:43:59.397Z,101264.53
2023-03-05T16:46:01.688Z,101260.41
2023-03-05T16:48:04.401Z,101251.03
2023-03-05T16:50:09.126Z,101254.56
2023-03-05T16:52:18.706Z,101244.31
2023-03-05T16:54:22.469Z,101239.97
2023-03-05T16:56:24.589Z,101241.19
2023-03-05T16:58:32.249Z,101235.06
2023-03-05T17:00:34.484Z,101238.19
2023-03-05T17:02:36.813Z,101227.06
2023-03-05T17:04:39.364Z,101238.06
2023-03-05T17:06:42.000Z,101234.56
2023-03-05T17:08:45.444Z,101227.81
2023-03-05T17:10:48.438Z,101236.13
2023-03-05T17:12:52.964Z,101231.97
2023-03-05T17:14:55.048Z,101228.31
2023-03-05T17:16:57.988Z,101227.56
2023-03-05T17:19:00.794Z,101231.13
2023-03-05T17:21:07.791Z,101232.88
2023-03-05T17:23:11.042Z,101227.81
2023-03-05T17:25:14.330Z,101225.38
2023-03-05T17:27:18.954Z,101224.63
2023-03-05T17:29:22.840Z,101216.00
2023-03-05T17:31:25.133Z,101216.66
2023-03-05T17:33:29.291Z,101210.50
2023-03-05T17:35:31.549Z,101217.47
2023-03-05T17:37:34.316Z,101214.97
2023-03-05T17:39:39.413Z,101214.25
2023-03-05T17:41:41.544Z,101209.41
2023-03-05T17:43:44.482Z,101207.84
2023-03-05T17:45:47.866Z,101209.47
2023-03-05T17:47:53.011Z,101211.31
2023-03-05T17:49:55.005Z,101199.16
2023-03-05T17:51:57.441Z,101194.91
2023-03-05T17:53:59.480Z,101198.56
2023-03-05T17:56:01.901Z,101198.72
2023-03-05T17:58:04.290Z,101204.72
2023-03-05T18:00:09.578Z,101197.91
2023-03-05T18:02:15.487Z,101195.44
2023-03-05T18:04:20.142Z,101196.09
2023-03-05T18:06:22.778Z,101202.09
2023-03-05T18:08:29.823Z,101195.94
2023-03-05T18:10:33.722Z,101188.47
2023-03-05T18:12:38.069Z,101190.88
2023-03-05T18:14:42.232Z,101190.09
2023-03-05T18:16:46.094Z,101183.97
2023-03-05T18:18:49.032Z,101175.09
2023-03-05T18:20:55.438Z,101171.09
2023-03-05T18:23:00.168Z,101177.16
2023-03-05T18:25:02.459Z,101176.22
2023-03-05T18:27:04.857Z,101171.66
2023-03-05T18:29:06.927Z,101166.38
2023-03-05T18:31:08.936Z,101169.09
2023-03-05T18:33:18.612Z,101170.72
2023-03-05T18:35:20.557Z,101172.53
2023-03-05T18:37:22.564Z,101169.09
2023-03-05T18:39:24.715Z,101162.94
2023-03-05T18:41:28.237Z,101163.81
2023-03-05T18:43:31.304Z,101158.13
2023-03-05T18:45:34.371Z,101157.88
2023-03-05T18:47:39.099Z,101161.25
2023-03-05T18:49:41.068Z,101163.63
2023-03-05T18:51:43.563Z,101156.63
2023-03-05T18:53:46.403Z,101158.19
2023-03-05T18:55:50.971Z,101153.41
2023-03-05T18:57:56.988Z,101163.63
2023-03-05T18:59:59.195Z,101155.19
2023-03-05T19:02:01.266Z,101161.75
2023-03-05T19:04:06.444Z,101148.19
2023-03-05T19:06:08.897Z,101152.25
2023-03-05T19:08:11.084Z,101144.69
2023-03-05T19:10:15.263Z,101148.88
2023-03-05T19:12:17.388Z,101147.19
2023-03-05T19:14:19.509Z,101136.03
2023-03-05T19:16:24.421Z,101129.41
2023-03-05T19:18:28.887Z,101126.97
2023-03-05T19:20:30.838Z,101129.16
2023-03-05T19:22:33.649Z,101121.44
2023-03-05T19:24:38.018Z,101118.06
2023-03-05T19:26:41.417Z,101124.78
2023-03-05T19:28:43.471Z,101124.88
2023-03-05T19:30:48.798Z,101125.75
2023-03-05T19:32:51.365Z,101125.59
2023-03-05T19:34:57.348Z,101121.44
2023-03-05T19:36:59.491Z,101114.53
2023-03-05T19:39:05.097Z,101117.91
2023-03-05T19:41:09.675Z,101115.28
2023-03-05T19:43:11.784Z,101111.00
2023-03-05T19:45:14.193Z,101115.44
2023-03-05T19:47:16.218Z,101112.13
2023-03-05T19:49:19.014Z,101117.28
2023-03-05T19:51:24.110Z,101109.56
2023-03-05T19:53:26.357Z,101111.41
2023-03-05T19:55:28.372Z,101111.25
2023-03-05T19:57:33.373Z,101109.66
2023-03-05T19:59:35.590Z,101097.75
2023-03-05T20:01:38.011Z,101103.13
2023-03-05T20:03:40.863Z,101106.66
2023-03-05T20:05:43.947Z,101096.41
2023-03-05T20:07:48.214Z,101096.97
2023-03-05T20:09:52.133Z,101094.25
2023-03-05T20:11:54.442Z,101096.09
2023-03-05T20:13:57.537Z,101089.44
2023-03-05T20:16:01.593Z,101090.44
2023-03-05T20:18:05.939Z,101085.19
2023-03-05T20:20:10.954Z,101088.69
2023-03-05T20:22:14.095Z,101095.94
2023-03-05T20:24:19.903Z,101092.72
2023-03-05T20:26:26.606Z,101094.50
2023-03-05T20:28:28.800Z,101084.06
2023-03-05T20:30:31.089Z,101086.97
2023-03-05T20:32:33.384Z,101084.97
2023-03-05T20:34:35.455Z,101090.16
2023-03-05T20:36:37.989Z,101092.59
2023-03-05T20:38:40.276Z,101084.47
2023-03-05T20:40:42.349Z,101084.53
2023-03-05T20:42:46.591Z,101076.03
2023-03-05T20:44:48.616Z,101082.63
2023-03-05T20:47:02.695Z,101079.41
2023-03-05T20:49:08.717Z,101086.97
2023-03-05T20:51:13.306Z,101081.19
2023-03-05T20:53:16.346Z,101081.09
2023-03-05T20:55:18.453Z,101081.97
2023-03-05T20:57:22.557Z,101075.97
2023-03-05T20:59:24.907Z,101076.31
2023-03-05T21:01:28.071Z,101072.94
2023-03-05T21:03:32.844Z,101080.84
2023-03-05T21:05:36.005Z,101069.91
2023-03-05T21:07:38.005Z,101068.44
2023-03-05T21:09:40.235Z,101071.31
2023-03-05T21:11:42.136Z,101067.09
2023-03-05T21:13:44.762Z,101064.59
2023-03-05T21:15:46.961Z,101071.34
2023-03-05T21:17:49.325Z,101065.38
2023-03-05T21:19:51.282Z,101058.34
2023-03-05T21:21:53.225Z,101064.38
2023-03-05T21:23:55.597Z,101056.94
2023-03-05T21:25:57.481Z,101059.63
2023-03-05T21:28:00.329Z,101056.88
2023-03-05T21:30:02.361Z,101062.34
2023-03-05T21:32:08.041Z,101061.25
2023-03-05T21:34:11.386Z,101061.19
2023-03-05T21:36:13.853Z,101057.00
2023-03-05T21:38:27.822Z,101054.38
2023-03-05T21:40:30.896Z,101053.50
2023-03-05T21:42:33.123Z,101056.94
2023-03-05T21:44:35.136Z,101048.25
2023-03-05T21:46:37.549Z,101048.38
2023-03-05T21:48:39.757Z,101039.88
2023-03-05T21:50:44.421Z,101044.91
2023-03-05T21:52:46.517Z,101043.63
2023-03-05T21:54:54.770Z,101033.63
2023-03-05T21:56:59.273Z,101039.59
2023-03-05T21:59:04.941Z,101030.97
2023-03-05T22:01:14.987Z,101028.22
2023-03-05T22:03:19.776Z,101028.16
2023-03-05T22:05:28.114Z,101030.78
2023-03-05T22:07:33.327Z,101022.88
2023-03-05T22:09:38.508Z,101025.59
2023-03-05T22:11:42.785Z,101022.09
2023-03-05T22:13:45.060Z,101019.19
2023-03-05T22:15:49.925Z,101014.28
2023-03-05T22:17:51.984Z,101014.19
2023-03-05T22:19:57.914Z,101010.81
2023-03-05T22:22:00.128Z,101003.13
2023-03-05T22:24:02.139Z,101004.00
2023-03-05T22:26:07.118Z,101001.34
2023-03-05T22:28:10.937Z,100997.72
2023-03-05T22:30:13.888Z,100994.91
2023-03-05T22:32:15.904Z,100994.03
2023-03-05T22:34:19.997Z,100996.78
2023-03-05T22:36:22.023Z,100986.47
2023-03-05T22:38:25.479Z,100979.47
2023-03-05T22:40:27.464Z,100980.50
2023-03-05T22:42:29.839Z,100980.28
2023-03-05T22:44:32.040Z,100973.63
2023-03-05T22:46:34.112Z,100969.22
2023-03-05T22:48:36.098Z,100969.03
2023-03-05T22:50:40.052Z,100964.41
2023-03-05T22:52:42.721Z,100962.66
2023-03-05T22:54:44.703Z,100961.69
2023-03-05T22:56:46.607Z,100964.31
2023-03-05T22:58:48.930Z,100954.88
2023-03-05T23:00:50.921Z,100957.44
2023-03-05T23:02:53.649Z,100963.88
2023-03-05T23:05:00.649Z,100953.16
2023-03-05T23:07:02.587Z,100959.19
2023-03-05T23:09:04.720Z,100957.28
2023-03-05T23:11:15.221Z,100959.47
2023-03-05T23:13:32.782Z,100951.34
2023-03-05T23:15:37.888Z,100956.41
2023-03-05T23:17:40.044Z,100951.47
2023-03-05T23:19:42.183Z,100948.59
2023-03-05T23:21:48.981Z,100946.63
2023-03-05T23:23:53.232Z,100948.59
2023-03-05T23:25:55.251Z,100951.16
2023-03-05T23:27:58.414Z,100954.63
2023-03-05T23:30:16.452Z,100946.09
2023-03-05T23:32:18.704Z,100952.06
2023-03-05T23:34:20.729Z,100945.47
2023-03-05T23:36:25.540Z,100945.97